sensor_id;sensor_type;location;lat;lon;timestamp;P1;P2;P0
59179;PMS7003;44956;52.422;20.818;2023-11-19T00:00:55;67.00;53.75;30.00
59179;PMS7003;44956;52.422;20.818;2023-11-19T00:04:18;56.75;45.50;25.00
59179;PMS7003;44956;52.422;20.818;2023-11-19T00:07:21;64.50;48.75;28.00
59179;PMS7003;44956;52.422;20.818;2023-11-19T00:10:26;60.50;50.00;28.00
59179;PMS7003;44956;52.422;20.818;2023-11-19T00:13:30;67.00;49.00;29.00
59179;PMS7003;44956;52.422;20.818;2023-11-19T00:16:32;69.75;53.00;30.25
59179;PMS7003;44956;52.422;20.818;2023-11-19T00:19:35;54.25;46.50;27.25
59179;PMS7003;44956;52.422;20.818;2023-11-19T00:22:38;62.75;51.00;28.00
59179;PMS7003;44956;52.422;20.818;2023-11-19T00:25:50;64.00;48.75;28.25
59179;PMS7003;44956;52.422;20.818;2023-11-19T00:28:53;66.50;49.00;30.00
59179;PMS7003;44956;52.422;20.818;2023-11-19T00:31:56;56.25;46.00;28.75
59179;PMS7003;44956;52.422;20.818;2023-11-19T00:34:59;62.50;47.25;25.75
59179;PMS7003;44956;52.422;20.818;2023-11-19T00:38:02;67.25;49.50;30.00
59179;PMS7003;44956;52.422;20.818;2023-11-19T00:41:05;52.75;34.25;13.00
59179;PMS7003;44956;52.422;20.818;2023-11-19T00:44:08;64.00;49.00;26.00
59179;PMS7003;44956;52.422;20.818;2023-11-19T00:47:11;56.50;45.00;21.50
59179;PMS7003;44956;52.422;20.818;2023-11-19T00:50:15;65.00;50.75;29.25
59179;PMS7003;44956;52.422;20.818;2023-11-19T00:53:17;49.50;44.50;23.50
59179;PMS7003;44956;52.422;20.818;2023-11-19T00:56:20;53.50;43.75;25.00
59179;PMS7003;44956;52.422;20.818;2023-11-19T00:59:22;55.25;46.50;25.00
59179;PMS7003;44956;52.422;20.818;2023-11-19T01:02:25;56.50;47.25;25.25
59179;PMS7003;44956;52.422;20.818;2023-11-19T01:05:28;44.25;31.75;18.50
59179;PMS7003;44956;52.422;20.818;2023-11-19T01:08:31;48.50;42.75;26.25
59179;PMS7003;44956;52.422;20.818;2023-11-19T01:11:34;66.25;48.00;28.00
59179;PMS7003;44956;52.422;20.818;2023-11-19T01:14:37;55.50;48.75;27.50
59179;PMS7003;44956;52.422;20.818;2023-11-19T01:17:40;67.50;49.00;25.75
59179;PMS7003;44956;52.422;20.818;2023-11-19T01:20:54;55.75;44.25;26.00
59179;PMS7003;44956;52.422;20.818;2023-11-19T01:23:57;68.50;51.75;27.50
59179;PMS7003;44956;52.422;20.818;2023-11-19T01:27:02;68.00;49.00;28.00
59179;PMS7003;44956;52.422;20.818;2023-11-19T01:30:04;61.50;48.00;27.50
59179;PMS7003;44956;52.422;20.818;2023-11-19T01:33:11;57.00;45.00;23.00
59179;PMS7003;44956;52.422;20.818;2023-11-19T01:36:14;62.50;49.75;30.00
59179;PMS7003;44956;52.422;20.818;2023-11-19T01:39:17;58.50;48.00;26.75
59179;PMS7003;44956;52.422;20.818;2023-11-19T01:42:19;62.50;52.00;30.00
59179;PMS7003;44956;52.422;20.818;2023-11-19T01:45:26;64.50;49.00;28.00
59179;PMS7003;44956;52.422;20.818;2023-11-19T01:48:31;67.75;52.25;28.00
59179;PMS7003;44956;52.422;20.818;2023-11-19T01:51:35;52.75;48.00;30.00
59179;PMS7003;44956;52.422;20.818;2023-11-19T01:54:38;54.75;45.00;21.75
59179;PMS7003;44956;52.422;20.818;2023-11-19T01:57:41;60.25;46.75;28.00
59179;PMS7003;44956;52.422;20.818;2023-11-19T02:00:44;67.00;52.50;30.00
59179;PMS7003;44956;52.422;20.818;2023-11-19T02:03:46;60.75;48.00;24.00
59179;PMS7003;44956;52.422;20.818;2023-11-19T02:06:49;65.25;49.00;29.25
59179;PMS7003;44956;52.422;20.818;2023-11-19T02:09:55;69.50;51.75;28.00
59179;PMS7003;44956;52.422;20.818;2023-11-19T02:13:01;67.50;51.75;28.50
59179;PMS7003;44956;52.422;20.818;2023-11-19T02:16:08;67.25;52.25;27.25
59179;PMS7003;44956;52.422;20.818;2023-11-19T02:19:13;61.75;50.75;29.25
59179;PMS7003;44956;52.422;20.818;2023-11-19T02:22:16;68.25;52.25;29.75
59179;PMS7003;44956;52.422;20.818;2023-11-19T02:25:25;66.00;48.00;29.00
59179;PMS7003;44956;52.422;20.818;2023-11-19T02:28:33;64.25;48.75;26.75
59179;PMS7003;44956;52.422;20.818;2023-11-19T02:31:36;68.00;51.75;28.00
59179;PMS7003;44956;52.422;20.818;2023-11-19T02:34:39;63.00;51.75;29.50
59179;PMS7003;44956;52.422;20.818;2023-11-19T02:37:41;67.25;50.75;29.25
59179;PMS7003;44956;52.422;20.818;2023-11-19T02:40:44;52.00;47.75;27.50
59179;PMS7003;44956;52.422;20.818;2023-11-19T02:43:46;68.75;51.75;30.00
59179;PMS7003;44956;52.422;20.818;2023-11-19T02:46:51;63.50;49.00;29.00
59179;PMS7003;44956;52.422;20.818;2023-11-19T02:49:53;67.00;53.50;29.50
59179;PMS7003;44956;52.422;20.818;2023-11-19T02:52:56;68.25;54.75;31.50
59179;PMS7003;44956;52.422;20.818;2023-11-19T02:55:59;66.00;50.50;29.75
59179;PMS7003;44956;52.422;20.818;2023-11-19T02:59:09;78.25;57.00;31.00
59179;PMS7003;44956;52.422;20.818;2023-11-19T03:02:20;70.50;52.50;30.00
59179;PMS7003;44956;52.422;20.818;2023-11-19T03:05:23;61.75;47.25;28.00
59179;PMS7003;44956;52.422;20.818;2023-11-19T03:08:26;66.75;51.00;31.25
59179;PMS7003;44956;52.422;20.818;2023-11-19T03:11:29;68.50;51.75;30.00
59179;PMS7003;44956;52.422;20.818;2023-11-19T03:14:35;60.25;48.25;25.25
59179;PMS7003;44956;52.422;20.818;2023-11-19T03:17:41;57.50;48.75;30.50
59179;PMS7003;44956;52.422;20.818;2023-11-19T03:20:45;60.75;48.00;25.75
59179;PMS7003;44956;52.422;20.818;2023-11-19T03:23:49;64.25;51.00;29.25
59179;PMS7003;44956;52.422;20.818;2023-11-19T03:26:51;62.25;50.75;30.00
59179;PMS7003;44956;52.422;20.818;2023-11-19T03:29:54;66.50;52.00;29.25
59179;PMS7003;44956;52.422;20.818;2023-11-19T03:32:57;55.25;45.25;29.50
59179;PMS7003;44956;52.422;20.818;2023-11-19T03:36:00;64.00;48.50;28.00
59179;PMS7003;44956;52.422;20.818;2023-11-19T03:39:03;60.75;50.75;30.00
59179;PMS7003;44956;52.422;20.818;2023-11-19T03:42:06;67.00;49.50;28.00
59179;PMS7003;44956;52.422;20.818;2023-11-19T03:45:09;64.25;52.00;30.00
59179;PMS7003;44956;52.422;20.818;2023-11-19T03:48:12;59.75;50.00;28.00
59179;PMS7003;44956;52.422;20.818;2023-11-19T03:51:14;58.75;46.50;27.00
59179;PMS7003;44956;52.422;20.818;2023-11-19T03:54:17;54.00;45.25;22.50
59179;PMS7003;44956;52.422;20.818;2023-11-19T03:57:20;62.00;50.00;28.25
59179;PMS7003;44956;52.422;20.818;2023-11-19T04:00:23;67.00;54.75;29.50
59179;PMS7003;44956;52.422;20.818;2023-11-19T04:03:26;64.00;49.00;25.25
59179;PMS7003;44956;52.422;20.818;2023-11-19T04:06:29;63.50;48.50;24.50
59179;PMS7003;44956;52.422;20.818;2023-11-19T04:09:31;70.00;47.00;27.25
59179;PMS7003;44956;52.422;20.818;2023-11-19T04:12:37;67.50;50.25;27.00
59179;PMS7003;44956;52.422;20.818;2023-11-19T04:15:39;69.75;56.50;30.50
59179;PMS7003;44956;52.422;20.818;2023-11-19T04:18:42;67.75;50.50;29.50
59179;PMS7003;44956;52.422;20.818;2023-11-19T04:21:45;69.25;53.50;30.75
59179;PMS7003;44956;52.422;20.818;2023-11-19T04:24:48;74.00;53.00;30.00
59179;PMS7003;44956;52.422;20.818;2023-11-19T04:27:51;69.00;52.50;30.00
59179;PMS7003;44956;52.422;20.818;2023-11-19T04:30:54;66.50;51.75;30.75
59179;PMS7003;44956;52.422;20.818;2023-11-19T04:33:58;73.00;52.00;30.00
59179;PMS7003;44956;52.422;20.818;2023-11-19T04:37:03;76.50;54.00;30.00
59179;PMS7003;44956;52.422;20.818;2023-11-19T04:40:09;71.50;54.25;31.00
59179;PMS7003;44956;52.422;20.818;2023-11-19T04:43:13;71.50;50.50;30.00
59179;PMS7003;44956;52.422;20.818;2023-11-19T04:46:16;73.25;57.00;30.25
59179;PMS7003;44956;52.422;20.818;2023-11-19T04:49:19;74.25;54.50;28.25
59179;PMS7003;44956;52.422;20.818;2023-11-19T04:52:21;77.25;54.50;31.75
59179;PMS7003;44956;52.422;20.818;2023-11-19T04:55:24;72.50;56.50;30.00
59179;PMS7003;44956;52.422;20.818;2023-11-19T04:58:28;71.75;55.00;30.00
59179;PMS7003;44956;52.422;20.818;2023-11-19T05:01:32;73.00;53.00;30.00
59179;PMS7003;44956;52.422;20.818;2023-11-19T05:04:35;82.00;60.00;33.25
59179;PMS7003;44956;52.422;20.818;2023-11-19T05:07:39;75.25;56.75;30.00
59179;PMS7003;44956;52.422;20.818;2023-11-19T05:10:41;71.25;52.50;30.50
59179;PMS7003;44956;52.422;20.818;2023-11-19T05:13:44;67.50;53.75;33.00
59179;PMS7003;44956;52.422;20.818;2023-11-19T05:16:47;88.25;57.50;30.75
59179;PMS7003;44956;52.422;20.818;2023-11-19T05:19:50;79.00;57.00;31.50
59179;PMS7003;44956;52.422;20.818;2023-11-19T05:22:53;72.00;54.75;30.00
59179;PMS7003;44956;52.422;20.818;2023-11-19T05:25:56;72.50;59.50;30.75
59179;PMS7003;44956;52.422;20.818;2023-11-19T05:29:00;75.50;58.00;33.50
59179;PMS7003;44956;52.422;20.818;2023-11-19T05:32:03;75.75;56.00;30.25
59179;PMS7003;44956;52.422;20.818;2023-11-19T05:35:07;68.75;50.00;26.75
59179;PMS7003;44956;52.422;20.818;2023-11-19T05:38:11;65.00;47.75;21.00
59179;PMS7003;44956;52.422;20.818;2023-11-19T05:41:13;72.50;54.75;33.00
59179;PMS7003;44956;52.422;20.818;2023-11-19T05:44:16;75.25;58.00;33.00
59179;PMS7003;44956;52.422;20.818;2023-11-19T05:47:19;74.50;54.25;30.50
59179;PMS7003;44956;52.422;20.818;2023-11-19T05:50:23;76.25;54.25;33.00
59179;PMS7003;44956;52.422;20.818;2023-11-19T05:53:25;77.00;57.00;30.00
59179;PMS7003;44956;52.422;20.818;2023-11-19T05:56:28;81.00;58.50;33.50
59179;PMS7003;44956;52.422;20.818;2023-11-19T05:59:35;73.75;57.25;31.50
59179;PMS7003;44956;52.422;20.818;2023-11-19T06:02:38;72.25;52.00;28.75
59179;PMS7003;44956;52.422;20.818;2023-11-19T06:05:43;69.25;53.75;28.25
59179;PMS7003;44956;52.422;20.818;2023-11-19T06:08:47;73.50;56.00;29.25
59179;PMS7003;44956;52.422;20.818;2023-11-19T06:11:51;76.00;54.25;30.75
59179;PMS7003;44956;52.422;20.818;2023-11-19T06:14:54;76.50;58.75;33.00
59179;PMS7003;44956;52.422;20.818;2023-11-19T06:17:58;76.50;53.75;31.00
59179;PMS7003;44956;52.422;20.818;2023-11-19T06:21:04;74.50;49.00;30.00
59179;PMS7003;44956;52.422;20.818;2023-11-19T06:24:06;76.75;55.50;30.00
59179;PMS7003;44956;52.422;20.818;2023-11-19T06:27:11;76.00;57.00;32.50
59179;PMS7003;44956;52.422;20.818;2023-11-19T06:30:13;76.25;60.25;33.75
59179;PMS7003;44956;52.422;20.818;2023-11-19T06:33:16;79.50;59.50;30.00
59179;PMS7003;44956;52.422;20.818;2023-11-19T06:36:19;76.00;57.50;32.00
59179;PMS7003;44956;52.422;20.818;2023-11-19T06:39:22;75.00;58.00;31.50
59179;PMS7003;44956;52.422;20.818;2023-11-19T06:42:24;63.25;52.50;30.75
59179;PMS7003;44956;52.422;20.818;2023-11-19T06:45:27;59.00;50.75;29.50
59179;PMS7003;44956;52.422;20.818;2023-11-19T06:48:30;70.75;51.25;27.75
59179;PMS7003;44956;52.422;20.818;2023-11-19T06:51:34;67.50;48.50;27.75
59179;PMS7003;44956;52.422;20.818;2023-11-19T06:54:40;74.50;59.50;33.00
59179;PMS7003;44956;52.422;20.818;2023-11-19T06:57:43;72.50;54.25;30.25
59179;PMS7003;44956;52.422;20.818;2023-11-19T07:00:45;66.75;51.50;30.00
59179;PMS7003;44956;52.422;20.818;2023-11-19T07:03:49;62.00;51.50;32.50
59179;PMS7003;44956;52.422;20.818;2023-11-19T07:06:53;70.25;53.50;30.00
59179;PMS7003;44956;52.422;20.818;2023-11-19T07:09:56;57.75;48.00;29.50
59179;PMS7003;44956;52.422;20.818;2023-11-19T07:12:58;62.25;46.75;19.00
59179;PMS7003;44956;52.422;20.818;2023-11-19T07:16:02;64.25;50.00;28.00
59179;PMS7003;44956;52.422;20.818;2023-11-19T07:19:07;56.25;48.25;27.50
59179;PMS7003;44956;52.422;20.818;2023-11-19T07:22:10;62.00;49.50;25.00
59179;PMS7003;44956;52.422;20.818;2023-11-19T07:25:13;53.00;45.00;22.00
59179;PMS7003;44956;52.422;20.818;2023-11-19T07:28:16;52.75;45.25;22.00
59179;PMS7003;44956;52.422;20.818;2023-11-19T07:31:19;50.75;44.50;22.50
59179;PMS7003;44956;52.422;20.818;2023-11-19T07:34:22;45.75;39.75;19.50
59179;PMS7003;44956;52.422;20.818;2023-11-19T07:37:26;41.50;35.00;15.50
59179;PMS7003;44956;52.422;20.818;2023-11-19T07:40:29;45.67;39.00;18.33
59179;PMS7003;44956;52.422;20.818;2023-11-19T07:43:31;49.75;40.25;19.50
59179;PMS7003;44956;52.422;20.818;2023-11-19T07:46:34;42.00;34.67;19.00
59179;PMS7003;44956;52.422;20.818;2023-11-19T07:49:37;39.75;31.00;18.25
59179;PMS7003;44956;52.422;20.818;2023-11-19T07:52:40;49.75;37.25;17.25
59179;PMS7003;44956;52.422;20.818;2023-11-19T07:55:43;41.00;34.50;18.00
59179;PMS7003;44956;52.422;20.818;2023-11-19T07:58:46;37.25;31.00;18.75
59179;PMS7003;44956;52.422;20.818;2023-11-19T08:01:50;39.75;30.50;15.75
59179;PMS7003;44956;52.422;20.818;2023-11-19T08:04:53;36.67;25.67;15.00
59179;PMS7003;44956;52.422;20.818;2023-11-19T08:07:57;38.67;30.33;15.00
59179;PMS7003;44956;52.422;20.818;2023-11-19T08:11:00;42.25;31.50;17.50
59179;PMS7003;44956;52.422;20.818;2023-11-19T08:14:03;29.33;27.00;15.00
59179;PMS7003;44956;52.422;20.818;2023-11-19T08:17:06;31.00;25.00;13.00
59179;PMS7003;44956;52.422;20.818;2023-11-19T08:20:09;25.00;21.00;13.00
59179;PMS7003;44956;52.422;20.818;2023-11-19T08:23:15;19.67;15.67;9.00
59179;PMS7003;44956;52.422;20.818;2023-11-19T08:26:18;26.00;24.00;13.00
59179;PMS7003;44956;52.422;20.818;2023-11-19T08:29:23;31.00;26.33;13.00
59179;PMS7003;44956;52.422;20.818;2023-11-19T08:32:26;27.67;24.67;12.00
59179;PMS7003;44956;52.422;20.818;2023-11-19T08:35:30;27.67;24.67;13.00
59179;PMS7003;44956;52.422;20.818;2023-11-19T08:38:33;24.33;20.33;7.67
59179;PMS7003;44956;52.422;20.818;2023-11-19T08:41:36;30.00;29.33;9.67
59179;PMS7003;44956;52.422;20.818;2023-11-19T08:44:41;23.33;21.00;10.00
59179;PMS7003;44956;52.422;20.818;2023-11-19T08:47:49;24.33;21.00;10.00
59179;PMS7003;44956;52.422;20.818;2023-11-19T08:50:52;29.33;22.00;12.33
59179;PMS7003;44956;52.422;20.818;2023-11-19T08:53:55;29.67;23.33;12.00
59179;PMS7003;44956;52.422;20.818;2023-11-19T08:56:59;23.00;21.33;11.33
59179;PMS7003;44956;52.422;20.818;2023-11-19T09:00:03;25.33;22.00;12.00
59179;PMS7003;44956;52.422;20.818;2023-11-19T09:03:09;23.00;22.00;10.00
59179;PMS7003;44956;52.422;20.818;2023-11-19T09:06:13;26.67;23.33;12.00
59179;PMS7003;44956;52.422;20.818;2023-11-19T09:09:15;27.00;25.67;13.00
59179;PMS7003;44956;52.422;20.818;2023-11-19T09:12:18;25.00;25.00;13.00
59179;PMS7003;44956;52.422;20.818;2023-11-19T09:15:21;23.67;22.67;12.00
59179;PMS7003;44956;52.422;20.818;2023-11-19T09:18:24;31.33;21.33;12.00
59179;PMS7003;44956;52.422;20.818;2023-11-19T09:21:27;25.67;21.67;12.00
59179;PMS7003;44956;52.422;20.818;2023-11-19T09:24:31;29.33;25.67;15.00
59179;PMS7003;44956;52.422;20.818;2023-11-19T09:27:34;30.33;22.67;12.00
59179;PMS7003;44956;52.422;20.818;2023-11-19T09:30:37;30.00;27.00;13.00
59179;PMS7003;44956;52.422;20.818;2023-11-19T09:33:40;30.33;25.00;12.67
59179;PMS7003;44956;52.422;20.818;2023-11-19T09:36:43;34.00;22.67;12.00
59179;PMS7003;44956;52.422;20.818;2023-11-19T09:39:47;33.00;26.33;13.00
59179;PMS7003;44956;52.422;20.818;2023-11-19T09:42:49;25.00;22.00;13.00
59179;PMS7003;44956;52.422;20.818;2023-11-19T09:45:52;30.33;27.33;15.00
59179;PMS7003;44956;52.422;20.818;2023-11-19T09:48:56;28.67;25.00;12.00
59179;PMS7003;44956;52.422;20.818;2023-11-19T09:52:01;22.33;22.33;11.33
59179;PMS7003;44956;52.422;20.818;2023-11-19T09:55:05;23.33;21.00;13.67
59179;PMS7003;44956;52.422;20.818;2023-11-19T09:58:08;30.33;24.67;10.67
59179;PMS7003;44956;52.422;20.818;2023-11-19T10:01:12;19.33;16.00;4.67
59179;PMS7003;44956;52.422;20.818;2023-11-19T10:04:17;28.67;26.33;12.33
59179;PMS7003;44956;52.422;20.818;2023-11-19T10:07:21;30.33;23.00;7.67
59179;PMS7003;44956;52.422;20.818;2023-11-19T10:10:28;33.67;29.33;15.00
59179;PMS7003;44956;52.422;20.818;2023-11-19T10:13:31;28.33;22.00;12.33
59179;PMS7003;44956;52.422;20.818;2023-11-19T10:16:34;25.00;24.33;13.00
59179;PMS7003;44956;52.422;20.818;2023-11-19T10:19:39;31.00;27.67;13.67
59179;PMS7003;44956;52.422;20.818;2023-11-19T10:22:43;30.00;28.33;15.33
59179;PMS7003;44956;52.422;20.818;2023-11-19T10:25:46;32.33;29.33;14.33
59179;PMS7003;44956;52.422;20.818;2023-11-19T10:28:49;27.00;21.00;12.33
59179;PMS7003;44956;52.422;20.818;2023-11-19T10:31:56;35.67;27.33;15.33
59179;PMS7003;44956;52.422;20.818;2023-11-19T10:35:19;27.67;27.33;13.00
59179;PMS7003;44956;52.422;20.818;2023-11-19T10:38:23;30.00;23.33;11.33
59179;PMS7003;44956;52.422;20.818;2023-11-19T10:41:29;36.00;27.00;13.67
59179;PMS7003;44956;52.422;20.818;2023-11-19T10:44:35;33.67;29.33;16.33
59179;PMS7003;44956;52.422;20.818;2023-11-19T10:47:38;29.33;27.33;13.67
59179;PMS7003;44956;52.422;20.818;2023-11-19T10:50:45;33.67;29.00;13.00
59179;PMS7003;44956;52.422;20.818;2023-11-19T10:53:49;35.67;20.67;13.67
59179;PMS7003;44956;52.422;20.818;2023-11-19T10:56:59;38.00;29.67;13.00
59179;PMS7003;44956;52.422;20.818;2023-11-19T11:00:04;31.67;26.33;15.67
59179;PMS7003;44956;52.422;20.818;2023-11-19T11:03:16;40.00;30.33;15.33
59179;PMS7003;44956;52.422;20.818;2023-11-19T11:06:20;32.33;26.33;15.00
59179;PMS7003;44956;52.422;20.818;2023-11-19T11:09:28;35.67;29.33;15.00
59179;PMS7003;44956;52.422;20.818;2023-11-19T11:12:31;33.67;31.67;15.67
59179;PMS7003;44956;52.422;20.818;2023-11-19T11:15:39;42.00;33.00;15.00
59179;PMS7003;44956;52.422;20.818;2023-11-19T11:18:45;36.33;27.67;15.00
59179;PMS7003;44956;52.422;20.818;2023-11-19T11:21:53;40.67;30.33;13.67
59179;PMS7003;44956;52.422;20.818;2023-11-19T11:25:19;39.67;30.33;15.00
59179;PMS7003;44956;52.422;20.818;2023-11-19T11:32:00;39.00;30.00;17.33
59179;PMS7003;44956;52.422;20.818;2023-11-19T11:38:21;33.67;32.00;17.33
59179;PMS7003;44956;52.422;20.818;2023-11-19T11:41:27;37.67;28.33;13.00
59179;PMS7003;44956;52.422;20.818;2023-11-19T11:48:08;39.00;31.00;18.00
59179;PMS7003;44956;52.422;20.818;2023-11-19T11:51:14;42.00;34.67;18.00
59179;PMS7003;44956;52.422;20.818;2023-11-19T11:57:20;41.33;34.33;16.67
59179;PMS7003;44956;52.422;20.818;2023-11-19T12:00:26;37.00;32.33;16.00
59179;PMS7003;44956;52.422;20.818;2023-11-19T12:03:30;32.33;29.67;16.67
59179;PMS7003;44956;52.422;20.818;2023-11-19T12:06:34;43.00;33.33;19.00
59179;PMS7003;44956;52.422;20.818;2023-11-19T12:09:41;37.33;31.33;17.33
59179;PMS7003;44956;52.422;20.818;2023-11-19T12:12:45;36.67;35.33;17.33
59179;PMS7003;44956;52.422;20.818;2023-11-19T12:19:02;44.00;38.33;18.33
59179;PMS7003;44956;52.422;20.818;2023-11-19T12:22:10;42.67;32.33;18.00
59179;PMS7003;44956;52.422;20.818;2023-11-19T12:25:13;47.33;28.33;14.33
59179;PMS7003;44956;52.422;20.818;2023-11-19T12:28:16;36.67;31.67;18.00
59179;PMS7003;44956;52.422;20.818;2023-11-19T12:31:22;47.33;33.00;16.00
59179;PMS7003;44956;52.422;20.818;2023-11-19T12:34:25;36.33;34.00;15.33
59179;PMS7003;44956;52.422;20.818;2023-11-19T12:37:29;39.33;34.00;18.00
59179;PMS7003;44956;52.422;20.818;2023-11-19T12:40:33;30.33;27.00;16.00
59179;PMS7003;44956;52.422;20.818;2023-11-19T12:43:37;44.00;34.00;16.00
59179;PMS7003;44956;52.422;20.818;2023-11-19T12:46:43;35.67;30.67;15.00
59179;PMS7003;44956;52.422;20.818;2023-11-19T12:49:56;42.33;33.33;17.33
59179;PMS7003;44956;52.422;20.818;2023-11-19T12:52:59;29.33;27.33;14.33
59179;PMS7003;44956;52.422;20.818;2023-11-19T12:56:11;32.67;30.00;17.33
59179;PMS7003;44956;52.422;20.818;2023-11-19T12:59:15;31.67;29.33;13.67
59179;PMS7003;44956;52.422;20.818;2023-11-19T13:02:19;36.67;32.33;13.00
59179;PMS7003;44956;52.422;20.818;2023-11-19T13:11:43;40.00;30.67;15.00
59179;PMS7003;44956;52.422;20.818;2023-11-19T13:14:48;36.00;31.00;15.67
59179;PMS7003;44956;52.422;20.818;2023-11-19T13:17:52;38.67;33.67;17.33
59179;PMS7003;44956;52.422;20.818;2023-11-19T13:20:55;42.33;33.00;15.67
59179;PMS7003;44956;52.422;20.818;2023-11-19T13:23:59;35.67;27.67;15.00
59179;PMS7003;44956;52.422;20.818;2023-11-19T13:27:05;40.33;34.33;15.67
59179;PMS7003;44956;52.422;20.818;2023-11-19T13:30:08;47.67;31.33;18.00
59179;PMS7003;44956;52.422;20.818;2023-11-19T13:33:29;39.67;33.67;16.00
59179;PMS7003;44956;52.422;20.818;2023-11-19T13:36:32;31.00;30.00;15.33
59179;PMS7003;44956;52.422;20.818;2023-11-19T13:39:35;44.33;34.67;15.67
59179;PMS7003;44956;52.422;20.818;2023-11-19T13:42:39;46.33;34.00;16.00
59179;PMS7003;44956;52.422;20.818;2023-11-19T13:45:45;50.00;31.33;15.00
59179;PMS7003;44956;52.422;20.818;2023-11-19T13:48:49;32.33;31.67;15.33
59179;PMS7003;44956;52.422;20.818;2023-11-19T13:51:52;33.33;25.67;13.00
59179;PMS7003;44956;52.422;20.818;2023-11-19T13:54:56;33.00;24.67;9.33
59179;PMS7003;44956;52.422;20.818;2023-11-19T13:58:00;46.67;38.33;16.00
59179;PMS7003;44956;52.422;20.818;2023-11-19T14:01:03;40.00;31.00;15.33
59179;PMS7003;44956;52.422;20.818;2023-11-19T14:04:08;38.33;32.33;16.00
59179;PMS7003;44956;52.422;20.818;2023-11-19T14:07:11;39.00;30.50;18.75
59179;PMS7003;44956;52.422;20.818;2023-11-19T14:10:14;43.25;39.75;21.25
59179;PMS7003;44956;52.422;20.818;2023-11-19T14:13:17;44.75;36.00;19.50
59179;PMS7003;44956;52.422;20.818;2023-11-19T14:16:22;49.25;38.75;19.00
59179;PMS7003;44956;52.422;20.818;2023-11-19T14:19:25;43.50;33.75;18.75
59179;PMS7003;44956;52.422;20.818;2023-11-19T14:22:28;45.25;36.25;19.00
59179;PMS7003;44956;52.422;20.818;2023-11-19T14:25:32;51.50;43.75;22.00
59179;PMS7003;44956;52.422;20.818;2023-11-19T14:28:37;36.00;32.75;19.00
59179;PMS7003;44956;52.422;20.818;2023-11-19T14:31:57;36.50;30.00;18.50
59179;PMS7003;44956;52.422;20.818;2023-11-19T14:35:01;40.25;37.50;18.25
59179;PMS7003;44956;52.422;20.818;2023-11-19T14:38:06;47.75;39.50;21.50
59179;PMS7003;44956;52.422;20.818;2023-11-19T14:41:12;41.75;31.25;16.25
59179;PMS7003;44956;52.422;20.818;2023-11-19T14:44:15;38.25;38.00;17.00
59179;PMS7003;44956;52.422;20.818;2023-11-19T14:47:18;46.00;42.75;22.00
59179;PMS7003;44956;52.422;20.818;2023-11-19T14:50:21;54.50;39.00;19.50
59179;PMS7003;44956;52.422;20.818;2023-11-19T14:53:24;40.00;36.75;19.00
59179;PMS7003;44956;52.422;20.818;2023-11-19T14:56:27;41.75;34.25;19.00
59179;PMS7003;44956;52.422;20.818;2023-11-19T14:59:30;46.50;39.75;21.25
59179;PMS7003;44956;52.422;20.818;2023-11-19T15:02:33;45.75;43.00;22.50
59179;PMS7003;44956;52.422;20.818;2023-11-19T15:05:38;47.00;39.75;21.00
59179;PMS7003;44956;52.422;20.818;2023-11-19T15:08:41;58.25;43.50;22.50
59179;PMS7003;44956;52.422;20.818;2023-11-19T15:11:44;44.25;34.50;18.75
59179;PMS7003;44956;52.422;20.818;2023-11-19T15:14:49;48.25;36.00;19.00
59179;PMS7003;44956;52.422;20.818;2023-11-19T15:17:54;47.00;40.00;21.75
59179;PMS7003;44956;52.422;20.818;2023-11-19T15:20:57;54.25;44.50;21.25
59179;PMS7003;44956;52.422;20.818;2023-11-19T15:24:00;54.00;44.50;20.75
59179;PMS7003;44956;52.422;20.818;2023-11-19T15:27:06;52.50;40.00;22.00
59179;PMS7003;44956;52.422;20.818;2023-11-19T15:30:14;54.00;44.00;20.50
59179;PMS7003;44956;52.422;20.818;2023-11-19T15:33:17;57.25;42.25;21.00
59179;PMS7003;44956;52.422;20.818;2023-11-19T15:36:21;49.00;41.00;21.00
59179;PMS7003;44956;52.422;20.818;2023-11-19T15:39:23;39.50;37.00;19.50
59179;PMS7003;44956;52.422;20.818;2023-11-19T15:42:28;42.50;36.25;21.00
59179;PMS7003;44956;52.422;20.818;2023-11-19T15:45:32;55.50;39.00;21.00
59179;PMS7003;44956;52.422;20.818;2023-11-19T15:48:41;48.00;38.00;18.75
59179;PMS7003;44956;52.422;20.818;2023-11-19T15:51:45;42.33;36.67;17.33
59179;PMS7003;44956;52.422;20.818;2023-11-19T15:54:48;40.50;39.25;19.50
59179;PMS7003;44956;52.422;20.818;2023-11-19T15:57:52;51.67;40.00;19.00
59179;PMS7003;44956;52.422;20.818;2023-11-19T16:00:55;50.75;42.50;21.25
59179;PMS7003;44956;52.422;20.818;2023-11-19T16:03:59;50.50;41.50;18.00
59179;PMS7003;44956;52.422;20.818;2023-11-19T16:07:02;54.00;41.00;19.50
59179;PMS7003;44956;52.422;20.818;2023-11-19T16:10:05;30.25;30.25;20.00
59179;PMS7003;44956;52.422;20.818;2023-11-19T16:13:12;51.00;42.50;21.75
59179;PMS7003;44956;52.422;20.818;2023-11-19T16:16:15;52.50;37.50;18.75
59179;PMS7003;44956;52.422;20.818;2023-11-19T16:19:18;38.75;32.00;16.00
59179;PMS7003;44956;52.422;20.818;2023-11-19T16:22:21;46.00;38.00;21.25
59179;PMS7003;44956;52.422;20.818;2023-11-19T16:25:26;44.75;39.25;18.50
59179;PMS7003;44956;52.422;20.818;2023-11-19T16:28:29;47.75;42.00;21.50
59179;PMS7003;44956;52.422;20.818;2023-11-19T16:31:33;47.50;37.75;18.25
59179;PMS7003;44956;52.422;20.818;2023-11-19T16:34:35;45.50;36.50;19.00
59179;PMS7003;44956;52.422;20.818;2023-11-19T16:37:45;54.25;34.75;19.75
59179;PMS7003;44956;52.422;20.818;2023-11-19T16:40:48;47.50;40.00;19.00
59179;PMS7003;44956;52.422;20.818;2023-11-19T16:43:54;42.25;38.25;21.00
59179;PMS7003;44956;52.422;20.818;2023-11-19T16:47:02;43.75;35.25;18.00
59179;PMS7003;44956;52.422;20.818;2023-11-19T16:50:06;48.00;41.75;20.00
59179;PMS7003;44956;52.422;20.818;2023-11-19T16:53:10;40.50;29.50;18.25
59179;PMS7003;44956;52.422;20.818;2023-11-19T16:56:14;41.50;38.50;16.00
59179;PMS7003;44956;52.422;20.818;2023-11-19T16:59:18;52.50;38.50;20.25
59179;PMS7003;44956;52.422;20.818;2023-11-19T17:02:25;56.00;38.00;20.00
59179;PMS7003;44956;52.422;20.818;2023-11-19T17:05:29;42.75;38.00;19.00
59179;PMS7003;44956;52.422;20.818;2023-11-19T17:08:36;45.00;39.50;19.00
59179;PMS7003;44956;52.422;20.818;2023-11-19T17:11:41;44.25;39.25;20.50
59179;PMS7003;44956;52.422;20.818;2023-11-19T17:14:47;42.75;32.00;18.25
59179;PMS7003;44956;52.422;20.818;2023-11-19T17:17:50;48.75;37.00;21.00
59179;PMS7003;44956;52.422;20.818;2023-11-19T17:20:54;38.50;34.00;14.75